createdAt,value
2023-04-25T00:00:02.082Z,62.41
2023-04-25T00:15:02.310Z,62.41
2023-04-25T00:30:02.744Z,62.41
2023-04-25T00:45:01.388Z,62.41
2023-04-25T01:00:01.748Z,62.41
2023-04-25T01:15:02.260Z,62.41
2023-04-25T01:30:02.783Z,62.41
2023-04-25T01:45:01.333Z,62.41
2023-04-25T02:00:01.824Z,62.41
2023-04-25T02:15:02.238Z,62.41
2023-04-25T02:30:02.714Z,62.41
2023-04-25T02:45:01.388Z,62.41
2023-04-25T03:00:01.677Z,62.41
2023-04-25T03:15:02.175Z,62.41
2023-04-25T03:30:01.475Z,62.41
2023-04-25T03:45:01.742Z,62.41
2023-04-25T04:00:02.112Z,62.41
2023-04-25T04:15:02.195Z,62.41
2023-04-25T04:30:02.690Z,62.41
2023-04-25T04:45:01.439Z,62.41
2023-04-25T05:00:01.769Z,62.41
2023-04-25T05:15:02.116Z,62.41
2023-04-25T05:30:02.675Z,62.41
2023-04-25T05:45:01.855Z,62.41
2023-04-25T06:00:02.278Z,62.41
2023-04-25T06:15:02.668Z,62.41
2023-04-25T06:30:02.618Z,62.41
2023-04-25T06:45:01.400Z,62.41
2023-04-25T07:00:02.381Z,62.41
2023-04-25T07:15:02.062Z,62.41
2023-04-25T07:30:01.383Z,62.41
2023-04-25T07:45:01.639Z,62.41
2023-04-25T08:00:02.065Z,62.41
2023-04-25T08:15:02.050Z,62.41
2023-04-25T08:30:01.367Z,62.41
2023-04-25T08:45:02.964Z,62.41
2023-04-25T09:00:02.110Z,62.41
2023-04-25T09:15:02.019Z,62.41
2023-04-25T09:30:02.013Z,62.41
2023-04-25T09:45:01.710Z,62.41
2023-04-25T10:00:02.046Z,62.41
2023-04-25T10:15:02.676Z,62.41
2023-04-25T10:30:03.127Z,62.41
2023-04-25T10:45:01.485Z,62.41
2023-04-25T11:00:02.029Z,62.41
2023-04-25T11:15:02.389Z,62.41
2023-04-25T11:30:02.871Z,62.41
2023-04-25T11:45:01.314Z,61.68
2023-04-25T12:00:01.643Z,61.68
2023-04-25T12:15:01.992Z,61.68
2023-04-25T12:30:01.324Z,61.68
2023-04-25T12:45:02.461Z,71.7
2023-04-25T13:00:03.021Z,71.7
2023-04-25T13:15:01.649Z,71.7
2023-04-25T13:30:03.211Z,82.44
2023-04-25T13:45:02.514Z,91.23
2023-04-25T14:00:01.793Z,91.23
2023-04-25T14:15:01.358Z,91.23
2023-04-25T14:30:01.982Z,91.23
2023-04-25T14:45:02.495Z,91.23
2023-04-25T15:00:01.484Z,91.23
2023-04-25T15:15:03.208Z,91.23
2023-04-25T15:30:01.684Z,91.23
2023-04-25T15:45:02.200Z,91.23
2023-04-25T16:00:01.324Z,91.23
2023-04-25T16:15:01.779Z,91.23
2023-04-25T16:30:02.129Z,91.23
2023-04-25T16:45:02.242Z,91.23
2023-04-25T17:00:02.574Z,108.18
2023-04-25T17:15:01.335Z,110.45
2023-04-25T17:30:02.088Z,113.89
2023-04-25T17:45:02.005Z,114.7
2023-04-25T18:00:02.923Z,115.43
2023-04-25T18:15:01.828Z,114.13
2023-04-25T18:30:02.219Z,113.24
2023-04-25T18:45:01.528Z,114.13
2023-04-25T19:00:02.465Z,114.62
2023-04-25T19:15:01.990Z,114.7
2023-04-25T19:30:01.273Z,114.86
2023-04-25T19:45:01.645Z,115.39
2023-04-25T20:00:02.508Z,115.43
2023-04-25T20:15:01.975Z,115.75
2023-04-25T20:30:01.344Z,115.67
2023-04-25T20:45:01.664Z,116.48
2023-04-25T21:00:02.593Z,115.55
2023-04-25T21:15:01.622Z,116.36
2023-04-25T21:30:02.655Z,116.48
2023-04-25T21:45:01.639Z,116.64
2023-04-25T22:00:01.641Z,117.9
2023-04-25T22:15:01.779Z,117.33
2023-04-25T22:30:02.686Z,117.25
2023-04-25T22:45:01.708Z,117.29
2023-04-25T23:00:02.728Z,117.29
2023-04-25T23:15:02.049Z,117.53
2023-04-25T23:30:01.418Z,118.54
2023-04-25T23:45:01.941Z,118.99
